Here is the Quick Look data you requested

The Data originates at the National Weather Service, and is made available here by the UAlbany Department of Atmospheric and Environmental Sciences

Surface Observations

KCVG 071552Z 28004KT 4SM BR FEW005 OVC008 11/10 A3018 RMK AO2 SLP219 T01060100=
KCVG 071614Z 26004KT 7SM FEW007 OVC010 11/11 A3019 RMK AO2 T01110106=
KCVG 071652Z 32007KT 6SM BR OVC009 11/10 A3019 RMK AO2 CIG 006V011 SLP222
 T01110100=
KCVG 071752Z 34006KT 6SM BR OVC008 11/10 A3020 RMK AO2 CIG 005V011 SLP224
 T01110100 10111 20100 51007=
KCVG 071852Z 32006KT 7SM OVC008 11/09 A3020 RMK AO2 SLP224 T01060094 $=
KCVG 071952Z 31006KT 6SM BR OVC007 11/09 A3021 RMK AO2 SLP227 CIG 005V009
 T01060094 $=
KCVG 072052Z 32006KT 8SM OVC009 10/09 A3023 RMK AO2 SLP234 T01000089 53009 $=
KCVG 072152Z 34007KT 6SM BR OVC009 10/09 A3026 RMK AO2 SLP245 T01000089 $=
KCVG 072215Z 35005KT 7SM OVC010 10/09 A3026 RMK AO2 T01000089 $=
KCVG 072252Z 33003KT 8SM OVC013 10/09 A3028 RMK AO2 SLP252 T01000089 $=
KCVG 072352Z 36005KT 8SM OVC013 09/08 A3028 RMK AO2 SLP254 CIG 011V016
 T00940083 10111 20094 51019 $=
KCVG 080052Z 36003KT 7SM OVC013 09/08 A3030 RMK AO2 SLP260 CIG 012V016
 T00940083 $=
KCVG 080139Z 35006KT 7SM OVC015 09/08 A3031 RMK AO2 T00890078 $=
KCVG 080152Z 35007KT 6SM BR OVC014 09/07 A3032 RMK AO2 SLP265 CIG 012V016
 T00890072 $=
KCVG 080252Z 34005KT 5SM BR OVC010 08/07 A3033 RMK AO2 SLP269 T00830072 51014 $=
KCVG 080352Z 36005KT 5SM BR OVC012 08/07 A3033 RMK AO2 SLP270 T00780067 $=
KCVG 080452Z 05007KT 6SM BR OVC013 08/06 A3033 RMK AO2 SLP268 T00830061
 401170078 $=
KCVG 080552Z 04006KT 6SM BR OVC014 08/06 A3033 RMK AO2 SLP271 T00780061 10094
 20078 53002 $=
KCVG 080652Z 02005KT 6SM BR OVC019 08/06 A3033 RMK AO2 SLP270 T00780056 $=
KCVG 080752Z 05008KT 6SM BR BKN019 07/06 A3031 RMK AO2 SLP265 T00720056 $=
KCVG 080852Z 06006KT 7SM OVC018 07/05 A3031 RMK AO2 SLP265 T00720050 56006 $=
KCVG 080952Z 02004KT 7SM BKN130 07/05 A3031 RMK AO2 SLP263 T00720050 $=
KCVG 081052Z 02004KT 6SM BR BKN150 07/05 A3030 RMK AO2 SLP260 T00720050 $=
KCVG 081130Z 34005KT 6SM BR BKN019 OVC120 07/05 A3032 RMK AO2 T00720050 $=
KCVG 081152Z 02005KT 6SM BR OVC018 07/06 A3031 RMK AO2 SLP263 T00670056 10078
 20067 55002 $=
KCVG 081252Z 03004KT 6SM BR OVC016 07/06 A3033 RMK AO2 SLP272 T00720056 $=
KCVG 081352Z 06006KT 5SM -RA BR OVC015 07/06 A3032 RMK AO2 RAB47 SLP266 PCPN
 LGT P0000 T00720056 $=
KCVG 081452Z 08006KT 5SM -RA BR BKN013 OVC080 07/06 A3030 RMK AO2 SLP261 P0001
 60001 T00720061 58003=
KCVG 081528Z 05011KT 5SM -RA BR SCT011 BKN075 OVC090 07/06 A3030 RMK AO2 P0001
 T00720061=
KCVG 081552Z 07011KT 5SM -RA BR SCT011 OVC070 07/06 A3028 RMK AO2 SLP254 P0002
 T00720061=